Garrison, West Virginia
Current Conditions -  °F | °C
As of 2:51 PM on Thursday 30 Oct 2014 (Local Time) from KBKW Reporting Station
Overcast Overcast  
Wind Chill: 44°   Ceiling: 2500
Heat Index: 44°   Visibility: 10mi
Dew Point: 31°   Wind: 3mph
Humidity: 60%   Direction: 350°N
Pressure: 30.07"   Gusts: NA
Location:  37.9764°N, 81.5271°W
Report Text: KBKW 301851Z AUTO 35003KT 10SM OVC025 07/M01 A3007 RMK AO2 SLP192 T00671006 TSNO
Loading
Personal Weather Stations






























Interactive Weather Map
Tropical Storm Tracking
New forecast layout! Learn more

10-Day Weather Forecast

Advertisements
Track Severe Weather on mobile